createdAt,value
2018-11-07T00:02:10.755Z,4.00
2018-11-07T00:04:39.056Z,6.03
2018-11-07T00:07:07.316Z,4.70
2018-11-07T00:09:35.714Z,4.47
2018-11-07T00:12:04.046Z,4.50
2018-11-07T00:14:32.388Z,5.13
2018-11-07T00:17:00.760Z,4.50
2018-11-07T00:19:29.248Z,4.53
2018-11-07T00:21:57.832Z,4.60
2018-11-07T00:24:26.249Z,4.40
2018-11-07T00:26:54.912Z,4.77
2018-11-07T00:29:23.451Z,4.17
2018-11-07T00:31:51.986Z,4.00
2018-11-07T00:34:20.497Z,3.90
2018-11-07T00:36:48.967Z,4.30
2018-11-07T00:39:17.537Z,3.77
2018-11-07T00:41:46.032Z,4.13
2018-11-07T00:44:14.733Z,4.03
2018-11-07T00:46:42.994Z,4.63
2018-11-07T00:49:11.354Z,3.40
2018-11-07T00:51:39.613Z,4.30
2018-11-07T00:54:07.976Z,5.40
2018-11-07T00:56:36.401Z,4.27
2018-11-07T00:59:04.815Z,4.23
2018-11-07T01:01:32.859Z,4.17
2018-11-07T01:04:01.155Z,3.70
2018-11-07T01:06:29.678Z,3.73
2018-11-07T01:08:58.073Z,3.40
2018-11-07T01:11:26.540Z,3.47
2018-11-07T01:13:55.008Z,3.60
2018-11-07T01:16:23.379Z,3.50
2018-11-07T01:18:51.872Z,3.73
2018-11-07T01:21:20.312Z,4.17
2018-11-07T01:23:48.692Z,4.30
2018-11-07T01:26:17.011Z,4.00
2018-11-07T01:28:45.293Z,4.00
2018-11-07T01:31:13.630Z,4.77
2018-11-07T01:33:41.856Z,3.00
2018-11-07T01:36:10.118Z,4.23
2018-11-07T01:38:38.423Z,4.40
2018-11-07T01:41:06.765Z,4.30
2018-11-07T01:43:35.066Z,4.40
2018-11-07T01:46:06.393Z,3.70
2018-11-07T01:48:34.808Z,3.50
2018-11-07T01:51:03.211Z,4.60
2018-11-07T01:53:31.540Z,3.90
2018-11-07T01:56:00.127Z,3.20
2018-11-07T01:58:28.551Z,3.53
2018-11-07T02:00:57.035Z,3.70
2018-11-07T02:03:25.484Z,4.20
2018-11-07T02:05:53.817Z,4.30
2018-11-07T02:08:25.300Z,5.00
2018-11-07T02:10:53.809Z,5.40
2018-11-07T02:13:22.258Z,4.83
2018-11-07T02:15:50.557Z,4.60
2018-11-07T02:18:18.828Z,3.97
2018-11-07T02:20:47.075Z,4.70
2018-11-07T02:23:15.368Z,3.90
2018-11-07T02:25:43.641Z,4.13
2018-11-07T02:28:11.979Z,4.67
2018-11-07T02:30:40.233Z,3.73
2018-11-07T02:33:08.537Z,3.90
2018-11-07T02:35:36.559Z,3.83
2018-11-07T02:38:04.999Z,4.73
2018-11-07T02:40:33.304Z,4.70
2018-11-07T02:43:01.687Z,4.37
2018-11-07T02:45:30.139Z,5.33
2018-11-07T02:47:58.491Z,4.77
2018-11-07T02:50:26.905Z,3.70
2018-11-07T02:52:55.101Z,4.47
2018-11-07T02:55:23.363Z,4.27
2018-11-07T02:57:51.611Z,5.23
2018-11-07T03:00:19.918Z,5.50
2018-11-07T03:02:48.183Z,6.90
2018-11-07T03:05:16.516Z,8.70
2018-11-07T03:07:44.927Z,8.00
2018-11-07T03:10:13.663Z,6.20
2018-11-07T03:12:42.292Z,5.20
2018-11-07T03:15:11.002Z,5.10
2018-11-07T03:17:39.274Z,5.30
2018-11-07T03:20:09.168Z,4.77
2018-11-07T03:22:37.639Z,6.70
2018-11-07T03:25:06.124Z,7.07
2018-11-07T03:27:34.711Z,6.50
2018-11-07T03:30:03.041Z,5.50
2018-11-07T03:32:31.334Z,3.90
2018-11-07T03:34:59.564Z,4.60
2018-11-07T03:37:27.825Z,5.03
2018-11-07T03:39:56.360Z,5.50
2018-11-07T03:42:24.482Z,4.43
2018-11-07T03:44:52.845Z,4.90
2018-11-07T03:47:21.143Z,4.60
2018-11-07T03:49:49.184Z,4.13
2018-11-07T03:52:17.600Z,4.70
2018-11-07T03:54:45.977Z,5.83
2018-11-07T03:57:14.244Z,5.80
2018-11-07T03:59:42.648Z,4.60
2018-11-07T04:02:10.634Z,3.47
2018-11-07T04:04:38.962Z,4.47
2018-11-07T04:07:07.252Z,4.70
2018-11-07T04:09:35.516Z,4.83
2018-11-07T04:12:03.858Z,3.70
2018-11-07T04:14:32.145Z,4.27
2018-11-07T04:17:00.395Z,4.80
2018-11-07T04:19:28.690Z,4.30
2018-11-07T04:21:57.021Z,4.67
2018-11-07T04:24:25.338Z,4.80
2018-11-07T04:26:53.611Z,9.03
2018-11-07T04:29:21.903Z,7.67
2018-11-07T04:31:50.282Z,8.80
2018-11-07T04:34:18.572Z,5.80
2018-11-07T04:36:46.790Z,5.50
2018-11-07T04:39:15.300Z,5.57
2018-11-07T04:41:43.508Z,6.20
2018-11-07T04:44:11.826Z,6.30
2018-11-07T04:46:40.173Z,5.40
2018-11-07T04:49:08.418Z,5.30
2018-11-07T04:51:36.707Z,5.20
2018-11-07T04:54:05.418Z,5.60
2018-11-07T04:56:33.727Z,6.03
2018-11-07T04:59:02.067Z,4.87
2018-11-07T05:01:30.440Z,4.20
2018-11-07T05:03:58.466Z,5.07
2018-11-07T05:06:26.668Z,5.37
2018-11-07T05:08:55.080Z,6.80
2018-11-07T05:11:23.601Z,6.37
2018-11-07T05:13:52.176Z,5.40
2018-11-07T05:16:20.674Z,5.30
2018-11-07T05:18:49.128Z,6.20
2018-11-07T05:21:17.626Z,7.43
2018-11-07T05:23:46.098Z,6.53
2018-11-07T05:26:14.487Z,7.40
2018-11-07T05:28:42.802Z,6.27
2018-11-07T05:31:10.903Z,5.60
2018-11-07T05:33:39.055Z,5.30
2018-11-07T05:36:07.802Z,5.53
2018-11-07T05:38:36.079Z,5.90
2018-11-07T05:41:04.638Z,6.30
2018-11-07T05:43:32.955Z,6.23
2018-11-07T05:46:01.202Z,6.20
2018-11-07T05:48:29.493Z,6.23
2018-11-07T05:50:57.778Z,6.07
2018-11-07T05:53:26.052Z,5.27
2018-11-07T05:55:54.463Z,5.90
2018-11-07T05:58:23.037Z,4.90
2018-11-07T06:00:51.063Z,5.50
2018-11-07T06:03:19.403Z,6.23
2018-11-07T06:05:47.530Z,5.47
2018-11-07T06:08:15.869Z,6.00
2018-11-07T06:10:44.233Z,5.23
2018-11-07T06:13:12.617Z,4.90
2018-11-07T06:15:40.879Z,5.53
2018-11-07T06:18:09.144Z,4.80
2018-11-07T06:20:37.447Z,5.43
2018-11-07T06:23:06.832Z,4.63
2018-11-07T06:25:35.105Z,4.87
2018-11-07T06:28:03.409Z,5.00
2018-11-07T06:30:31.709Z,9.63
2018-11-07T06:32:59.979Z,7.50
2018-11-07T06:35:28.236Z,7.73
2018-11-07T06:37:56.497Z,7.70
2018-11-07T06:40:24.770Z,6.90
2018-11-07T06:42:53.006Z,7.97
2018-11-07T06:45:21.413Z,7.30
2018-11-07T06:47:49.694Z,7.40
2018-11-07T06:50:18.002Z,5.20
2018-11-07T06:52:46.321Z,5.53
2018-11-07T06:55:14.605Z,5.77
2018-11-07T06:57:42.953Z,5.57
2018-11-07T07:00:14.897Z,4.97
2018-11-07T07:02:44.083Z,6.20
2018-11-07T07:05:12.388Z,5.70
2018-11-07T07:07:40.410Z,6.23
2018-11-07T07:10:11.936Z,5.30
2018-11-07T07:12:40.384Z,6.60
2018-11-07T07:15:10.719Z,6.57
2018-11-07T07:17:38.872Z,10.00
2018-11-07T07:20:13.565Z,11.90
2018-11-07T07:22:42.380Z,10.00
2018-11-07T07:25:11.390Z,10.77
2018-11-07T07:27:39.898Z,8.60
2018-11-07T07:30:10.849Z,7.50
2018-11-07T07:32:39.444Z,10.10
2018-11-07T07:35:07.789Z,8.67
2018-11-07T07:37:36.041Z,10.57
2018-11-07T07:40:05.517Z,8.47
2018-11-07T07:42:33.856Z,8.60
2018-11-07T07:45:02.131Z,8.33
2018-11-07T07:47:30.435Z,8.07
2018-11-07T07:49:58.804Z,9.13
2018-11-07T07:52:27.051Z,9.07
2018-11-07T07:54:55.338Z,8.83
2018-11-07T07:57:23.570Z,8.07
2018-11-07T07:59:51.886Z,8.10
2018-11-07T08:02:20.227Z,9.30
2018-11-07T08:04:48.590Z,7.60
2018-11-07T08:07:16.872Z,8.13
2018-11-07T08:09:45.175Z,7.47
2018-11-07T08:12:13.226Z,7.97
2018-11-07T08:14:41.557Z,8.60
2018-11-07T08:17:09.894Z,7.43
2018-11-07T08:19:38.238Z,8.47
2018-11-07T08:22:06.633Z,8.50
2018-11-07T08:24:34.941Z,14.97
2018-11-07T08:27:03.262Z,16.70
2018-11-07T08:29:31.571Z,9.30
2018-11-07T08:31:59.816Z,8.33
2018-11-07T08:34:28.177Z,7.03
2018-11-07T08:36:56.490Z,7.30
2018-11-07T08:39:24.780Z,7.83
2018-11-07T08:41:52.872Z,6.93
2018-11-07T08:44:21.194Z,7.77
2018-11-07T08:46:49.497Z,6.87
2018-11-07T08:49:17.861Z,7.40
2018-11-07T08:51:47.238Z,6.97
2018-11-07T08:54:15.526Z,6.90
2018-11-07T08:56:43.850Z,7.07
2018-11-07T08:59:12.097Z,8.50
2018-11-07T09:01:40.454Z,8.00
2018-11-07T09:04:08.816Z,6.93
2018-11-07T09:06:37.130Z,7.27
2018-11-07T09:09:08.479Z,7.50
2018-11-07T09:11:36.793Z,7.33
2018-11-07T09:14:05.074Z,7.10
2018-11-07T09:16:33.383Z,6.50
2018-11-07T09:19:01.684Z,6.53
2018-11-07T09:21:29.930Z,7.33
2018-11-07T09:23:58.321Z,6.50
2018-11-07T09:26:26.727Z,7.20
2018-11-07T09:28:54.991Z,6.17
2018-11-07T09:31:23.279Z,5.43
2018-11-07T09:33:51.579Z,5.20
2018-11-07T09:36:19.951Z,4.43
2018-11-07T09:38:48.394Z,5.33
2018-11-07T09:41:16.870Z,6.70
2018-11-07T09:43:45.312Z,5.57
2018-11-07T09:46:13.779Z,6.43
2018-11-07T09:48:42.673Z,6.63
2018-11-07T09:51:10.958Z,6.20
2018-11-07T09:53:39.302Z,6.30
2018-11-07T09:56:07.588Z,6.60
2018-11-07T09:58:35.871Z,6.10
2018-11-07T10:01:04.400Z,6.73
2018-11-07T10:03:32.702Z,6.83
2018-11-07T10:06:00.984Z,6.77
2018-11-07T10:08:29.276Z,6.57
2018-11-07T10:10:57.613Z,6.13
2018-11-07T10:13:25.912Z,7.03
2018-11-07T10:15:54.223Z,5.40
2018-11-07T10:18:22.506Z,6.20
2018-11-07T10:20:50.516Z,7.60
2018-11-07T10:23:18.559Z,6.83
2018-11-07T10:25:46.921Z,5.87
2018-11-07T10:28:15.372Z,5.07
2018-11-07T10:30:43.535Z,4.60
2018-11-07T10:33:11.847Z,4.53
2018-11-07T10:35:40.376Z,3.70
2018-11-07T10:38:08.828Z,4.50
2018-11-07T10:40:36.897Z,4.40
2018-11-07T10:43:05.372Z,3.97
2018-11-07T10:45:33.707Z,4.07
2018-11-07T10:48:02.006Z,3.60
2018-11-07T10:50:30.331Z,3.80
2018-11-07T10:52:58.555Z,3.70
2018-11-07T10:55:26.839Z,3.47
2018-11-07T10:57:55.153Z,2.80
2018-11-07T11:00:28.859Z,3.03
2018-11-07T11:03:07.488Z,2.83
2018-11-07T11:05:35.919Z,2.63
2018-11-07T11:08:04.461Z,2.00
2018-11-07T11:10:32.742Z,2.83
2018-11-07T11:13:00.755Z,2.10
2018-11-07T11:15:29.017Z,2.43
2018-11-07T11:17:57.332Z,1.80
2018-11-07T11:20:25.652Z,2.20
2018-11-07T11:22:53.976Z,2.17
2018-11-07T11:25:22.062Z,2.17
2018-11-07T11:27:50.417Z,2.10
2018-11-07T11:30:18.748Z,2.27
2018-11-07T11:32:47.293Z,2.27
2018-11-07T11:35:15.776Z,2.10
2018-11-07T11:37:44.074Z,1.90
2018-11-07T11:40:14.394Z,2.57
2018-11-07T11:42:43.553Z,2.03
2018-11-07T11:45:13.330Z,2.00
2018-11-07T11:47:42.285Z,2.10
2018-11-07T11:50:13.921Z,2.40
2018-11-07T11:52:43.206Z,2.37
2018-11-07T11:55:11.786Z,1.73
2018-11-07T11:57:41.050Z,1.60
2018-11-07T12:00:10.177Z,1.80
2018-11-07T12:02:38.222Z,1.90
2018-11-07T12:05:07.774Z,1.53
2018-11-07T12:07:36.105Z,2.33
2018-11-07T12:10:05.112Z,1.80
2018-11-07T12:12:33.434Z,1.63
2018-11-07T12:15:01.956Z,1.73
2018-11-07T12:17:30.201Z,1.93
2018-11-07T12:19:58.556Z,1.60
2018-11-07T12:22:27.032Z,2.03
2018-11-07T12:24:55.333Z,1.63
2018-11-07T12:27:24.729Z,1.70
2018-11-07T12:29:52.768Z,1.50
2018-11-07T12:32:21.104Z,1.70
2018-11-07T12:34:49.404Z,1.80
2018-11-07T12:37:17.750Z,1.60
2018-11-07T12:39:45.836Z,1.30
2018-11-07T12:42:14.171Z,1.70
2018-11-07T12:44:42.475Z,1.53
2018-11-07T12:47:10.812Z,1.70
2018-11-07T12:49:39.073Z,1.50
2018-11-07T12:52:07.346Z,1.30
2018-11-07T12:54:35.667Z,1.23
2018-11-07T12:57:04.043Z,2.00
2018-11-07T12:59:32.312Z,1.43
2018-11-07T13:02:00.532Z,1.13
2018-11-07T13:04:28.922Z,1.77
2018-11-07T13:06:57.170Z,1.60
2018-11-07T13:09:25.484Z,1.77
2018-11-07T13:11:53.791Z,1.30
2018-11-07T13:14:22.088Z,0.90
2018-11-07T13:16:50.382Z,0.83
2018-11-07T13:19:18.690Z,0.90
2018-11-07T13:21:47.023Z,1.23
2018-11-07T13:24:15.391Z,1.00
2018-11-07T13:26:43.562Z,1.00
2018-11-07T13:29:11.796Z,0.70
2018-11-07T13:31:40.037Z,1.03
2018-11-07T13:34:08.327Z,1.13
2018-11-07T13:36:36.647Z,0.70
2018-11-07T13:39:08.465Z,0.60
2018-11-07T13:41:36.382Z,0.90
2018-11-07T13:44:04.430Z,0.80
2018-11-07T13:46:32.757Z,0.77
2018-11-07T13:49:00.804Z,0.80
2018-11-07T13:51:28.920Z,0.70
2018-11-07T13:53:56.972Z,0.70
2018-11-07T13:56:25.430Z,0.70
2018-11-07T13:58:53.748Z,0.80
2018-11-07T14:01:22.287Z,0.77
2018-11-07T14:03:50.607Z,0.70
2018-11-07T14:06:19.201Z,0.73
2018-11-07T14:08:47.620Z,0.60
2018-11-07T14:11:16.082Z,0.67
2018-11-07T14:13:44.378Z,0.60
2018-11-07T14:16:12.796Z,0.60
2018-11-07T14:18:41.096Z,0.90
2018-11-07T14:21:09.476Z,0.77
2018-11-07T14:23:37.783Z,0.90
2018-11-07T14:26:05.850Z,0.60
2018-11-07T14:28:34.163Z,0.70
2018-11-07T14:31:02.372Z,0.70
2018-11-07T14:33:31.205Z,0.60
2018-11-07T14:35:59.567Z,0.70
2018-11-07T14:38:27.967Z,1.17
2018-11-07T14:40:56.223Z,1.13
2018-11-07T14:43:24.526Z,0.70
2018-11-07T14:45:52.959Z,0.60
2018-11-07T14:48:21.250Z,0.70
2018-11-07T14:50:49.732Z,1.00
2018-11-07T14:53:17.964Z,0.70
2018-11-07T14:55:46.278Z,1.03
2018-11-07T14:58:14.711Z,1.00
2018-11-07T15:00:43.024Z,0.93
2018-11-07T15:03:11.302Z,0.70
2018-11-07T15:05:42.653Z,0.80
2018-11-07T15:08:10.987Z,1.10
2018-11-07T15:10:39.248Z,1.20
2018-11-07T15:13:07.541Z,0.90
2018-11-07T15:15:35.600Z,1.27
2018-11-07T15:18:03.784Z,1.10
2018-11-07T15:20:32.282Z,1.17
2018-11-07T15:23:00.609Z,1.60
2018-11-07T15:25:28.892Z,1.07
2018-11-07T15:27:56.883Z,1.60
2018-11-07T15:30:24.798Z,1.50
2018-11-07T15:32:52.976Z,1.43
2018-11-07T15:35:21.236Z,1.77
2018-11-07T15:37:49.577Z,0.80
2018-11-07T15:40:18.244Z,1.00
2018-11-07T15:42:47.046Z,1.00
2018-11-07T15:45:16.476Z,1.00
2018-11-07T15:47:44.890Z,1.40
2018-11-07T15:50:18.562Z,1.37
2018-11-07T15:52:47.645Z,1.60
2018-11-07T15:55:15.868Z,2.77
2018-11-07T15:57:44.423Z,3.47
2018-11-07T16:00:15.912Z,2.53
2018-11-07T16:02:44.200Z,2.50
2018-11-07T16:05:13.764Z,2.57
2018-11-07T16:07:42.132Z,2.10
2018-11-07T16:10:11.618Z,2.47
2018-11-07T16:12:40.587Z,2.20
2018-11-07T16:15:10.799Z,2.30
2018-11-07T16:17:39.598Z,4.37
2018-11-07T16:20:10.995Z,4.30
2018-11-07T16:22:39.549Z,5.27
2018-11-07T16:25:08.053Z,9.70
2018-11-07T16:27:36.244Z,8.50
2018-11-07T16:30:06.769Z,6.27
2018-11-07T16:32:35.353Z,8.33
2018-11-07T16:35:03.951Z,5.67
2018-11-07T16:37:32.478Z,6.10
2018-11-07T16:40:01.260Z,5.60
2018-11-07T16:42:29.827Z,6.10
2018-11-07T16:44:58.655Z,8.83
2018-11-07T16:47:27.296Z,6.60
2018-11-07T16:49:56.427Z,8.97
2018-11-07T16:52:25.642Z,6.30
2018-11-07T16:54:54.270Z,11.37
2018-11-07T16:57:22.889Z,16.13
2018-11-07T16:59:51.576Z,10.00
2018-11-07T17:02:21.044Z,5.07
2018-11-07T17:04:49.845Z,5.37
2018-11-07T17:07:19.300Z,5.93
2018-11-07T17:09:48.099Z,7.67
2018-11-07T17:12:16.633Z,11.77
2018-11-07T17:14:45.205Z,14.17
2018-11-07T17:17:14.519Z,13.60
2018-11-07T17:19:43.146Z,13.60
2018-11-07T17:22:11.738Z,13.60
2018-11-07T17:24:40.567Z,17.90
2018-11-07T17:27:09.357Z,28.27
2018-11-07T17:29:40.438Z,61.23
2018-11-07T17:32:09.873Z,94.60
2018-11-07T17:34:38.302Z,42.40
2018-11-07T17:37:06.513Z,36.47
2018-11-07T17:39:35.089Z,33.03
2018-11-07T17:42:03.333Z,33.87
2018-11-07T17:44:33.480Z,26.20
2018-11-07T17:47:01.883Z,21.93
2018-11-07T17:49:30.643Z,22.37
2018-11-07T17:51:59.537Z,23.10
2018-11-07T17:54:29.297Z,21.50
2018-11-07T17:56:58.130Z,25.53
2018-11-07T17:59:26.692Z,20.70
2018-11-07T18:01:55.313Z,22.90
2018-11-07T18:04:23.803Z,20.23
2018-11-07T18:06:55.460Z,22.40
2018-11-07T18:09:24.628Z,44.30
2018-11-07T18:11:53.350Z,34.30
2018-11-07T18:14:21.892Z,35.17
2018-11-07T18:16:50.704Z,36.87
2018-11-07T18:19:18.851Z,34.97
2018-11-07T18:21:47.500Z,38.37
2018-11-07T18:24:16.144Z,33.73
2018-11-07T18:26:45.005Z,35.80
2018-11-07T18:29:13.952Z,30.30
2018-11-07T18:31:42.517Z,31.20
2018-11-07T18:34:11.123Z,31.83
2018-11-07T18:36:39.533Z,30.10
2018-11-07T18:39:09.846Z,27.10
2018-11-07T18:41:38.830Z,26.40
2018-11-07T18:44:07.554Z,23.80
2018-11-07T18:46:36.187Z,23.80
2018-11-07T18:49:05.093Z,28.43
2018-11-07T18:51:33.578Z,26.00
2018-11-07T18:54:02.141Z,16.30
2018-11-07T18:56:30.894Z,19.27
2018-11-07T18:58:59.444Z,22.00
2018-11-07T19:01:27.822Z,21.07
2018-11-07T19:03:58.891Z,19.80
2018-11-07T19:06:27.648Z,17.10
2018-11-07T19:08:56.143Z,23.17
2018-11-07T19:11:25.413Z,20.90
2018-11-07T19:13:54.428Z,21.50
2018-11-07T19:16:23.666Z,15.57
2018-11-07T19:18:52.491Z,19.90
2018-11-07T19:21:21.136Z,20.77
2018-11-07T19:23:49.730Z,18.47
2018-11-07T19:26:19.414Z,18.33
2018-11-07T19:28:47.608Z,16.73
2018-11-07T19:31:15.948Z,19.27
2018-11-07T19:33:44.830Z,18.20
2018-11-07T19:36:13.634Z,17.40
2018-11-07T19:38:42.565Z,26.23
2018-11-07T19:41:11.123Z,20.07
2018-11-07T19:43:39.841Z,16.13
2018-11-07T19:46:08.709Z,15.90
2018-11-07T19:48:37.233Z,16.10
2018-11-07T19:51:07.135Z,17.57
2018-11-07T19:53:35.422Z,16.90
2018-11-07T19:56:03.957Z,17.50
2018-11-07T19:58:32.516Z,17.43
2018-11-07T20:01:02.477Z,18.27
2018-11-07T20:03:31.532Z,17.07
2018-11-07T20:06:00.866Z,18.40
2018-11-07T20:08:30.171Z,19.80
2018-11-07T20:10:59.017Z,17.90
2018-11-07T20:13:28.224Z,20.20
2018-11-07T20:15:56.812Z,20.30
2018-11-07T20:18:25.431Z,21.53
2018-11-07T20:20:54.289Z,21.30
2018-11-07T20:23:23.201Z,21.50
2018-11-07T20:25:53.212Z,21.03
2018-11-07T20:28:22.763Z,20.07
2018-11-07T20:30:50.923Z,18.63
2018-11-07T20:33:20.250Z,18.60
2018-11-07T20:35:49.171Z,14.23
2018-11-07T20:38:22.265Z,13.63
2018-11-07T20:40:51.156Z,13.57
2018-11-07T20:43:20.482Z,13.90
2018-11-07T20:45:50.335Z,13.80
2018-11-07T20:48:21.825Z,12.90
2018-11-07T20:50:50.152Z,13.07
2018-11-07T20:53:18.315Z,14.17
2018-11-07T20:55:46.500Z,13.70
2018-11-07T20:58:14.699Z,13.97
2018-11-07T21:00:42.870Z,13.67
2018-11-07T21:03:11.009Z,12.23
2018-11-07T21:05:39.209Z,9.47
2018-11-07T21:08:07.366Z,12.27
2018-11-07T21:10:35.693Z,12.40
2018-11-07T21:13:03.947Z,12.80
2018-11-07T21:15:32.198Z,13.67
2018-11-07T21:18:00.442Z,15.27
2018-11-07T21:20:29.409Z,14.37
2018-11-07T21:22:57.775Z,15.53
2018-11-07T21:25:26.093Z,17.27
2018-11-07T21:27:54.291Z,16.20
2018-11-07T21:30:22.577Z,15.87
2018-11-07T21:32:50.873Z,14.70
2018-11-07T21:35:19.456Z,14.73
2018-11-07T21:37:47.740Z,15.20
2018-11-07T21:40:16.877Z,13.27
2018-11-07T21:42:45.992Z,14.47
2018-11-07T21:45:14.919Z,13.57
2018-11-07T21:47:43.523Z,12.73
2018-11-07T21:50:13.144Z,12.80
2018-11-07T21:52:41.453Z,11.97
2018-11-07T21:55:09.743Z,13.07
2018-11-07T21:57:38.330Z,12.10
2018-11-07T22:00:13.326Z,10.93
2018-11-07T22:02:41.532Z,11.47
2018-11-07T22:05:10.323Z,11.70
2018-11-07T22:07:40.161Z,11.67
2018-11-07T22:10:09.392Z,11.87
2018-11-07T22:12:37.645Z,12.80
2018-11-07T22:15:06.461Z,10.80
2018-11-07T22:17:34.843Z,13.53
2018-11-07T22:20:03.273Z,12.77
2018-11-07T22:22:31.629Z,13.97
2018-11-07T22:24:59.978Z,14.33
2018-11-07T22:27:28.305Z,13.50
2018-11-07T22:29:56.649Z,13.57
2018-11-07T22:32:24.973Z,14.20
2018-11-07T22:34:53.218Z,14.43
2018-11-07T22:37:21.433Z,14.27
2018-11-07T22:39:49.771Z,14.40
2018-11-07T22:42:18.079Z,14.20
2018-11-07T22:44:46.130Z,14.87
2018-11-07T22:47:14.425Z,16.10
2018-11-07T22:49:42.717Z,14.93
2018-11-07T22:52:11.079Z,14.47
2018-11-07T22:54:39.310Z,13.40
2018-11-07T22:57:07.329Z,12.73
2018-11-07T22:59:35.375Z,14.23
2018-11-07T23:02:03.716Z,13.77
2018-11-07T23:04:32.048Z,13.40
2018-11-07T23:07:00.523Z,12.97
2018-11-07T23:09:28.745Z,13.93
2018-11-07T23:11:57.020Z,13.73
2018-11-07T23:20:14.621Z,13.13
2018-11-07T23:22:42.847Z,14.33
2018-11-07T23:25:11.046Z,14.70
2018-11-07T23:27:39.277Z,14.10
2018-11-07T23:30:07.859Z,14.47
2018-11-07T23:32:36.107Z,14.83
2018-11-07T23:35:05.041Z,13.00
2018-11-07T23:37:33.252Z,14.83
2018-11-07T23:40:01.461Z,13.53
2018-11-07T23:42:29.659Z,13.83
2018-11-07T23:44:57.959Z,14.30
2018-11-07T23:47:26.255Z,13.73
2018-11-07T23:49:54.351Z,11.63
2018-11-07T23:52:27.988Z,12.50
2018-11-07T23:54:56.291Z,12.37
2018-11-07T23:57:24.514Z,12.03
2018-11-07T23:59:52.710Z,12.53
